Time;durP1;ratioP1;P1;durP2;ratioP2;P2;SDS_P1;SDS_P2;PMS_P1;PMS_P2;Temp;Humidity;BMP_temperature;BMP_pressure;BME280_temperature;BME280_humidity;BME280_pressure;Samples;Min_cycle;Max_cycle;Signal;HPM_P1;HPM_P2
2023/06/01 00:00:09;;;;;;;2.28;1.50;;;;;;;14.64;63.00;100272.53;10334766;28;20062;-72
2023/06/01 00:05:13;;;;;;;3.22;1.88;;;;;;;15.00;62.52;100270.94;10337342;28;20535;-71
2023/06/01 00:10:15;;;;;;;5.32;1.73;;;;;;;14.87;62.21;100268.88;10336186;28;20042;-70
2023/06/01 00:15:17;;;;;;;2.58;1.35;;;;;;;14.38;63.05;100264.84;10335423;28;20043;-71
2023/06/01 00:20:19;;;;;;;2.17;1.50;;;;;;;14.35;64.50;100259.72;10334154;28;20101;-70
2023/06/01 00:25:20;;;;;;;5.00;1.60;;;;;;;14.64;63.02;100255.81;10335953;28;20042;-70
2023/06/01 00:30:22;;;;;;;3.47;1.88;;;;;;;14.25;65.02;100256.59;10336531;28;20038;-70
2023/06/01 00:35:24;;;;;;;3.72;1.50;;;;;;;14.24;64.77;100262.81;10336766;28;20042;-70
2023/06/01 00:40:26;;;;;;;2.05;1.50;;;;;;;14.32;65.32;100262.50;10334177;28;20046;-71
2023/06/01 00:45:28;;;;;;;2.40;1.48;;;;;;;14.27;64.67;100261.84;10334908;28;20053;-71
2023/06/01 00:50:30;;;;;;;6.07;1.85;;;;;;;14.17;65.44;100260.53;10334842;28;20038;-71
2023/06/01 00:55:33;;;;;;;3.55;2.47;;;;;;;14.06;66.48;100255.69;10334503;28;20054;-70
2023/06/01 01:00:37;;;;;;;3.10;1.80;;;;;;;13.93;66.87;100259.75;10334487;28;20093;-70
2023/06/01 01:05:41;;;;;;;3.30;1.75;;;;;;;13.69;67.88;100259.00;10336494;28;20100;-71
2023/06/01 01:10:50;;;;;;;2.05;1.75;;;;;;;13.43;70.19;100260.06;10344223;28;20064;-71
2023/06/01 01:15:58;;;;;;;3.60;2.00;;;;;;;13.77;69.17;100255.13;10344156;28;20072;-71
2023/06/01 01:21:21;;;;;;;2.05;1.80;;;;;;;13.46;70.53;100255.53;10340823;28;20500;-70
2023/06/01 01:26:52;;;;;;;2.75;2.10;;;;;;;13.34;70.69;100263.91;10342392;28;20129;-71
2023/06/01 01:31:55;;;;;;;2.85;2.30;;;;;;;13.69;70.86;100266.94;10339998;28;20047;-71
2023/06/01 01:36:58;;;;;;;2.88;2.10;;;;;;;13.67;70.89;100263.47;10341547;28;20096;-71
2023/06/01 01:42:00;;;;;;;4.88;2.33;;;;;;;13.40;72.21;100260.16;10340329;28;20477;-71
2023/06/01 01:47:25;;;;;;;3.47;2.53;;;;;;;13.03;73.92;100261.56;10323468;28;20508;-71
2023/06/01 01:52:38;;;;;;;3.47;2.15;;;;;;;13.21;74.22;100246.81;10322620;28;20057;-71
2023/06/01 01:57:42;;;;;;;3.42;2.10;;;;;;;13.22;73.83;100235.31;10338229;28;20046;-71
2023/06/01 02:02:47;;;;;;;4.97;2.50;;;;;;;13.08;74.94;100239.34;10322961;28;20493;-71
2023/06/01 02:07:50;;;;;;;2.67;2.43;;;;;;;12.92;75.68;100235.59;10338304;28;20056;-71
2023/06/01 02:12:52;;;;;;;3.85;2.92;;;;;;;12.77;77.63;100231.75;10338119;28;20046;-71
2023/06/01 02:17:54;;;;;;;2.85;2.35;;;;;;;12.72;76.95;100233.72;10339834;28;20496;-71
2023/06/01 02:22:56;;;;;;;2.45;2.08;;;;;;;12.77;77.09;100238.81;10321946;28;20050;-72
2023/06/01 02:27:58;;;;;;;3.33;2.45;;;;;;;13.08;76.57;100236.72;10338187;28;20073;-71
2023/06/01 02:32:59;;;;;;;7.45;3.67;;;;;;;13.15;75.20;100218.88;10336847;28;20092;-71
2023/06/01 02:38:02;;;;;;;3.53;2.70;;;;;;;12.73;77.20;100218.75;10336430;28;20046;-71
2023/06/01 02:43:04;;;;;;;3.95;2.60;;;;;;;12.40;78.66;100220.88;10336752;28;20074;-71
2023/06/01 02:48:06;;;;;;;4.93;3.00;;;;;;;12.73;78.00;100202.91;10338274;28;20043;-71
2023/06/01 02:53:08;;;;;;;3.60;2.22;;;;;;;12.48;79.24;100205.59;10336437;28;20145;-71
2023/06/01 02:58:16;;;;;;;5.18;2.80;;;;;;;12.40;78.67;100203.28;10335557;28;20385;-71
2023/06/01 03:03:41;;;;;;;5.97;3.08;;;;;;;12.19;80.81;100215.44;10337680;28;20050;-70
2023/06/01 03:08:43;;;;;;;4.53;2.90;;;;;;;12.08;81.15;100222.84;10335658;28;20045;-70
2023/06/01 03:14:02;;;;;;;4.22;2.78;;;;;;;12.19;81.49;100222.47;10336680;28;20050;-71
2023/06/01 03:19:05;;;;;;;3.85;2.80;;;;;;;12.34;81.14;100221.94;10336402;28;20053;-71
2023/06/01 03:24:07;;;;;;;6.22;3.38;;;;;;;12.85;78.89;100215.66;10338387;28;20038;-71
2023/06/01 03:29:09;;;;;;;4.28;3.17;;;;;;;12.37;81.47;100227.09;10335963;28;20046;-70
2023/06/01 03:34:11;;;;;;;4.68;2.83;;;;;;;12.17;83.76;100237.47;10336611;28;20053;-71
2023/06/01 03:39:17;;;;;;;6.45;3.63;;;;;;;12.67;81.78;100230.38;10336540;28;20050;-70
2023/06/01 03:44:19;;;;;;;4.23;3.17;;;;;;;12.58;82.09;100226.31;10334614;28;20133;-71
2023/06/01 03:49:21;;;;;;;5.93;3.42;;;;;;;12.41;83.88;100233.13;10335263;28;20042;-70
2023/06/01 03:54:23;;;;;;;4.93;3.20;;;;;;;12.65;82.86;100224.28;10334746;28;20137;-71
2023/06/01 03:59:25;;;;;;;4.78;2.88;;;;;;;12.74;82.47;100213.41;10335121;28;20042;-72
2023/06/01 04:04:29;;;;;;;4.95;3.90;;;;;;;12.95;82.18;100218.78;10319033;28;20508;-72
2023/06/01 04:09:31;;;;;;;5.30;3.22;;;;;;;12.98;82.03;100214.25;10334590;28;20412;-72
2023/06/01 04:14:32;;;;;;;5.10;3.05;;;;;;;13.12;81.04;100214.56;10335118;28;20054;-71
2023/06/01 04:19:35;;;;;;;6.57;3.90;;;;;;;13.08;80.76;100226.16;10334472;28;20039;-71
2023/06/01 04:24:41;;;;;;;5.95;3.83;;;;;;;13.21;79.22;100231.81;10334067;28;20047;-72
2023/06/01 04:29:44;;;;;;;9.32;3.30;;;;;;;13.11;79.63;100233.97;10333609;28;20077;-72
2023/06/01 04:34:48;;;;;;;6.13;3.97;;;;;;;13.44;78.25;100238.00;10333830;28;20503;-72
2023/06/01 04:39:51;;;;;;;6.57;3.70;;;;;;;13.40;79.03;100233.75;10334390;28;20419;-71
2023/06/01 04:44:53;;;;;;;4.07;3.30;;;;;;;13.58;78.96;100233.00;10342407;28;20043;-71
2023/06/01 04:49:56;;;;;;;6.93;4.07;;;;;;;13.80;78.91;100233.84;10344264;28;20062;-71
2023/06/01 04:54:58;;;;;;;4.18;3.65;;;;;;;13.99;78.12;100225.13;10342471;28;20058;-72
2023/06/01 05:00:00;;;;;;;8.52;4.13;;;;;;;14.55;73.30;100227.13;10341124;28;20038;-71
2023/06/01 05:05:02;;;;;;;8.40;3.70;;;;;;;14.36;73.31;100212.03;10341223;28;20042;-71
2023/06/01 05:10:06;;;;;;;5.20;3.33;;;;;;;14.36;72.33;100206.75;10324194;28;20493;-71
2023/06/01 05:15:16;;;;;;;3.70;3.05;;;;;;;14.69;70.18;100207.97;10340311;28;20042;-71
2023/06/01 05:20:20;;;;;;;12.02;4.05;;;;;;;15.16;68.87;100210.19;10340855;28;20048;-71
2023/06/01 05:25:29;;;;;;;3.30;2.40;;;;;;;15.85;64.91;100213.00;10341981;28;20043;-71
2023/06/01 05:30:31;;;;;;;4.25;1.95;;;;;;;16.63;59.19;100216.84;10339855;28;20104;-72
2023/06/01 05:35:34;;;;;;;4.75;2.00;;;;;;;17.29;56.68;100218.56;10340512;28;20159;-71
2023/06/01 05:40:41;;;;;;;3.10;2.13;;;;;;;17.82;54.92;100215.47;10340693;28;20045;-71
2023/06/01 05:45:43;;;;;;;5.03;2.10;;;;;;;17.67;55.00;100221.69;10339990;28;20440;-70
2023/06/01 05:50:45;;;;;;;3.55;2.03;;;;;;;18.08;53.98;100227.25;10339927;28;20053;-71
2023/06/01 05:55:47;;;;;;;3.75;1.90;;;;;;;18.78;52.40;100224.75;10338749;28;20450;-72
2023/06/01 06:00:52;;;;;;;4.35;2.17;;;;;;;19.20;51.34;100224.78;10339773;28;20034;-71
2023/06/01 06:05:54;;;;;;;5.38;2.38;;;;;;;18.87;52.49;100218.84;10338706;28;20042;-71
2023/06/01 06:10:56;;;;;;;4.80;2.00;;;;;;;18.70;53.12;100216.41;10338614;28;20484;-71
2023/06/01 06:15:58;;;;;;;4.88;2.30;;;;;;;19.02;50.97;100214.34;10340621;28;20069;-70
2023/06/01 06:21:00;;;;;;;4.55;2.38;;;;;;;19.12;51.52;100211.94;10338545;28;20054;-72
2023/06/01 06:26:02;;;;;;;4.35;2.08;;;;;;;19.32;51.81;100211.53;10338565;28;20058;-70
2023/06/01 06:31:04;;;;;;;11.50;2.45;;;;;;;19.27;50.58;100213.63;10337671;28;20053;-71
2023/06/01 06:36:06;;;;;;;5.72;2.40;;;;;;;18.88;53.72;100204.59;10321921;28;20101;-71
2023/06/01 06:41:08;;;;;;;4.88;2.85;;;;;;;19.35;52.34;100208.66;10337589;28;20042;-72
2023/06/01 06:46:10;;;;;;;3.15;2.55;;;;;;;19.60;50.25;100217.69;10337578;28;20046;-72
2023/06/01 06:51:12;;;;;;;8.65;3.15;;;;;;;19.33;51.12;100210.56;10337270;28;20125;-71
2023/06/01 06:56:13;;;;;;;3.83;2.33;;;;;;;19.24;51.96;100210.31;10335667;28;20065;-72
2023/06/01 07:01:15;;;;;;;4.13;2.35;;;;;;;19.58;53.24;100206.28;10337185;28;20038;-71
2023/06/01 07:06:18;;;;;;;9.73;2.50;;;;;;;19.69;51.44;100206.44;10335844;28;20046;-72
2023/06/01 07:11:20;;;;;;;5.88;3.00;;;;;;;19.29;52.27;100209.03;10337426;28;20038;-72
2023/06/01 07:16:24;;;;;;;4.60;2.53;;;;;;;19.23;53.14;100200.63;10337370;28;20117;-71
2023/06/01 07:21:26;;;;;;;5.95;2.80;;;;;;;19.36;54.16;100206.84;10336348;28;20142;-71
2023/06/01 07:26:29;;;;;;;3.58;2.60;;;;;;;19.41;52.80;100202.06;10336171;28;20070;-72
2023/06/01 07:31:32;;;;;;;4.47;2.30;;;;;;;19.74;53.34;100191.00;10336326;28;20046;-71
2023/06/01 07:36:36;;;;;;;4.80;2.22;;;;;;;20.23;51.34;100185.00;10335315;28;20416;-72
2023/06/01 07:41:39;;;;;;;4.00;2.30;;;;;;;20.19;52.91;100172.81;10336184;28;20038;-71
2023/06/01 07:46:41;;;;;;;4.65;2.42;;;;;;;20.72;50.48;100178.00;10340226;28;20041;-72
2023/06/01 07:51:43;;;;;;;2.90;1.85;;;;;;;20.75;51.13;100177.81;10352192;28;20070;-71
2023/06/01 07:56:47;;;;;;;5.20;2.35;;;;;;;20.96;49.41;100176.25;10356984;28;20046;-71
2023/06/01 08:01:49;;;;;;;3.08;1.98;;;;;;;21.23;49.73;100181.41;10375334;28;20080;-71
2023/06/01 08:06:52;;;;;;;3.83;1.75;;;;;;;21.38;48.58;100176.75;10339391;28;20116;-71
2023/06/01 08:11:54;;;;;;;4.68;1.92;;;;;;;21.78;47.95;100168.41;10335088;28;20085;-71
2023/06/01 08:16:56;;;;;;;4.50;2.15;;;;;;;22.36;45.66;100164.81;10338094;28;20038;-71
2023/06/01 08:21:58;;;;;;;2.75;2.22;;;;;;;21.65;46.29;100157.81;10360321;28;20054;-71
2023/06/01 08:27:00;;;;;;;9.82;2.33;;;;;;;21.53;46.50;100158.72;10382546;28;20062;-71
2023/06/01 08:32:02;;;;;;;3.97;2.00;;;;;;;21.71;46.78;100143.13;10383550;28;20050;-71
2023/06/01 08:37:04;;;;;;;6.53;2.40;;;;;;;21.66;47.08;100146.97;10384147;28;20101;-72
2023/06/01 08:42:08;;;;;;;5.43;1.90;;;;;;;21.85;47.87;100140.22;10384827;28;20042;-71
2023/06/01 08:47:13;;;;;;;6.47;2.17;;;;;;;22.55;46.80;100141.91;10384420;28;20077;-71
2023/06/01 08:52:20;;;;;;;4.70;2.15;;;;;;;22.69;46.48;100135.44;10375542;28;20125;-71
2023/06/01 08:57:22;;;;;;;3.45;1.42;;;;;;;22.57;45.26;100135.44;10340228;28;20500;-72
2023/06/01 09:02:25;;;;;;;6.65;1.98;;;;;;;22.88;44.58;100131.13;10342026;28;20046;-72
2023/06/01 09:07:27;;;;;;;5.68;1.92;;;;;;;23.09;43.85;100131.22;10341501;28;20058;-72
2023/06/01 09:12:30;;;;;;;2.88;1.40;;;;;;;23.56;42.48;100123.75;10341376;28;20042;-71
2023/06/01 09:17:32;;;;;;;3.75;1.63;;;;;;;23.98;40.25;100121.06;10340889;28;20463;-71
2023/06/01 09:22:41;;;;;;;2.50;1.40;;;;;;;24.10;40.19;100119.19;10355643;28;20512;-71
2023/06/01 09:27:49;;;;;;;2.83;1.50;;;;;;;24.28;38.65;100111.34;10340006;28;20093;-72
2023/06/01 09:33:06;;;;;;;5.60;1.17;;;;;;;24.73;38.28;100119.03;10339434;28;20050;-72
2023/06/01 09:38:08;;;;;;;4.57;1.42;;;;;;;24.31;39.56;100111.09;10339701;28;20109;-71
2023/06/01 09:43:21;;;;;;;3.10;1.60;;;;;;;25.25;37.82;100108.97;10340237;28;20054;-72
2023/06/01 09:48:23;;;;;;;3.50;1.60;;;;;;;24.99;37.71;100101.41;10339928;28;20085;-72
2023/06/01 09:53:26;;;;;;;3.58;1.65;;;;;;;24.73;36.81;100110.97;10339709;28;20045;-72
2023/06/01 09:58:28;;;;;;;4.90;1.67;;;;;;;24.94;38.72;100102.81;10339491;28;20069;-71
2023/06/01 10:03:30;;;;;;;3.95;1.40;;;;;;;25.39;36.83;100097.75;10339504;28;20042;-72
2023/06/01 10:08:33;;;;;;;7.45;1.77;;;;;;;25.60;37.25;100093.06;10337457;28;20061;-72
2023/06/01 10:13:36;;;;;;;3.53;1.65;;;;;;;25.40;38.24;100094.91;10339653;28;20045;-72
2023/06/01 10:18:38;;;;;;;5.35;1.77;;;;;;;25.31;39.18;100086.84;10338338;28;20053;-72
2023/06/01 10:23:41;;;;;;;2.47;1.55;;;;;;;25.07;39.87;100095.31;10338009;28;20126;-71
2023/06/01 10:28:45;;;;;;;3.92;1.80;;;;;;;25.38;39.54;100086.16;10337817;28;20408;-71
2023/06/01 10:33:55;;;;;;;3.45;1.70;;;;;;;26.04;38.37;100069.19;10339050;28;20054;-71
2023/06/01 10:39:23;;;;;;;4.20;1.60;;;;;;;25.18;39.11;100076.38;10336588;28;20049;-70
2023/06/01 10:44:40;;;;;;;2.08;1.38;;;;;;;25.22;36.98;100080.47;10338498;28;20046;-70
2023/06/01 10:49:48;;;;;;;4.55;1.85;;;;;;;25.65;36.94;100063.88;10337825;28;20046;-70
2023/06/01 10:54:50;;;;;;;2.75;1.50;;;;;;;26.29;38.14;100066.81;10337269;28;20046;-70
2023/06/01 11:00:11;;;;;;;3.22;1.70;;;;;;;25.85;40.21;100062.03;10335306;28;20069;-70
2023/06/01 11:05:47;;;;;;;3.65;1.50;;;;;;;26.08;38.05;100059.81;10336462;28;20404;-70
2023/06/01 11:10:52;;;;;;;2.65;1.33;;;;;;;26.55;37.19;100057.06;10337723;28;20053;-70
2023/06/01 11:16:04;;;;;;;3.25;1.70;;;;;;;26.37;36.76;100054.28;10337077;28;20046;-70
2023/06/01 11:21:11;;;;;;;;;;;;;;;26.09;37.24;100037.28;10337250;28;20381;-70
2023/06/01 11:26:15;;;;;;;5.30;1.80;;;;;;;25.75;36.87;100038.78;10336378;28;19929;-71
2023/06/01 11:31:19;;;;;;;2.60;1.70;;;;;;;26.00;36.70;100040.00;10336927;28;20065;-70
2023/06/01 11:36:26;;;;;;;;;;;;;;;26.70;34.66;100033.16;10336637;28;20049;-70
2023/06/01 11:41:28;;;;;;;4.10;1.90;;;;;;;26.54;35.48;100022.19;10335417;28;20411;-71
2023/06/01 11:46:30;;;;;;;5.63;1.80;;;;;;;26.49;34.98;100017.25;10335868;28;20097;-70
2023/06/01 11:51:42;;;;;;;2.35;1.70;;;;;;;26.24;34.79;100013.38;10336153;28;20038;-70
2023/06/01 11:56:45;;;;;;;5.20;2.00;;;;;;;25.60;35.89;100006.09;10351090;28;20046;-70
2023/06/01 12:01:49;;;;;;;2.75;1.80;;;;;;;26.10;34.56;100005.78;10335108;28;20093;-70
2023/06/01 12:06:51;;;;;;;3.75;1.95;;;;;;;25.95;34.40;99996.50;10334929;28;20117;-70
2023/06/01 12:11:54;;;;;;;4.82;2.10;;;;;;;26.77;34.70;100006.41;10335274;28;20487;-70
2023/06/01 12:16:58;;;;;;;4.45;2.00;;;;;;;26.78;32.29;100000.84;10336377;28;20034;-70
2023/06/01 12:22:00;;;;;;;4.13;2.22;;;;;;;26.49;34.26;100005.63;10336983;28;20038;-70
2023/06/01 12:27:17;;;;;;;6.72;2.40;;;;;;;26.00;35.20;99994.22;10336711;28;20049;-71
2023/06/01 12:32:19;;;;;;;4.70;2.50;;;;;;;25.62;32.10;99990.63;10334280;28;20042;-71
2023/06/01 12:37:21;;;;;;;5.15;2.20;;;;;;;26.24;31.53;99986.44;10333636;28;20074;-71
2023/06/01 12:42:43;;;;;;;4.90;2.75;;;;;;;25.98;31.98;99980.88;10334663;28;20038;-71
2023/06/01 12:47:45;;;;;;;2.95;2.15;;;;;;;26.06;33.50;99978.28;10334368;28;20455;-71
2023/06/01 12:52:47;;;;;;;4.80;2.58;;;;;;;26.68;34.85;99967.72;10334246;28;20069;-71
2023/06/01 12:57:53;;;;;;;4.20;2.63;;;;;;;27.24;31.68;99968.41;10334371;28;20077;-71
2023/06/01 13:02:55;;;;;;;4.80;3.60;;;;;;;26.59;30.57;99979.44;10336437;28;20074;-71
2023/06/01 13:07:57;;;;;;;9.82;3.83;;;;;;;26.29;32.73;99967.09;10340306;28;20046;-71
2023/06/01 13:13:00;;;;;;;11.15;3.45;;;;;;;25.99;32.23;99958.38;10341733;28;20106;-71
2023/06/01 13:18:01;;;;;;;5.45;3.30;;;;;;;25.95;32.92;99956.97;10341086;28;20046;-72
2023/06/01 13:23:03;;;;;;;5.70;3.33;;;;;;;26.16;34.68;99954.88;10341334;28;20101;-70
2023/06/01 13:28:07;;;;;;;4.55;3.53;;;;;;;25.94;34.78;99949.84;10341254;28;20046;-70
2023/06/01 13:33:09;;;;;;;4.57;3.08;;;;;;;25.85;32.73;99953.44;10342126;28;20412;-71
2023/06/01 13:38:12;;;;;;;5.70;3.88;;;;;;;26.09;32.67;99956.47;10341322;28;20069;-71
2023/06/01 13:43:13;;;;;;;7.55;3.92;;;;;;;25.48;35.35;99953.44;10342952;28;20097;-71
2023/06/01 13:48:15;;;;;;;8.23;4.55;;;;;;;25.00;35.64;99955.19;10341660;28;20050;-70
2023/06/01 13:53:21;;;;;;;5.18;4.57;;;;;;;25.28;36.99;99949.91;10341827;28;20042;-70
2023/06/01 13:58:22;;;;;;;4.55;4.22;;;;;;;24.67;36.02;99935.81;10342988;28;20046;-71
2023/06/01 14:03:24;;;;;;;7.15;5.18;;;;;;;24.92;36.01;99933.53;10340236;28;20180;-71
2023/06/01 14:08:26;;;;;;;5.47;4.97;;;;;;;24.85;36.70;99932.44;10340923;28;20106;-71
2023/06/01 14:13:28;;;;;;;7.53;4.82;;;;;;;25.33;35.09;99921.63;10342617;28;20065;-71
2023/06/01 14:18:30;;;;;;;5.05;4.63;;;;;;;24.90;34.05;99919.41;10341187;28;20046;-71
2023/06/01 14:23:32;;;;;;;5.75;5.03;;;;;;;24.94;32.92;99920.81;10340742;28;20129;-70
2023/06/01 14:28:34;;;;;;;5.20;4.50;;;;;;;25.36;30.76;99915.06;10341223;28;20121;-71
2023/06/01 14:33:36;;;;;;;4.32;3.85;;;;;;;25.57;29.43;99918.41;10340305;28;20042;-71
2023/06/01 14:38:39;;;;;;;6.82;4.18;;;;;;;25.40;29.19;99908.41;10338854;28;20048;-72
2023/06/01 14:43:40;;;;;;;4.95;3.45;;;;;;;25.58;28.64;99911.16;10338005;28;20049;-71
2023/06/01 14:48:42;;;;;;;4.55;3.05;;;;;;;25.92;27.83;99912.31;10336785;28;20050;-71
2023/06/01 14:53:45;;;;;;;4.97;3.72;;;;;;;25.30;31.64;99911.13;10338391;28;20046;-71
2023/06/01 14:58:47;;;;;;;3.40;3.10;;;;;;;25.58;29.83;99911.16;10337984;28;20066;-71
2023/06/01 15:03:49;;;;;;;2.22;1.95;;;;;;;25.25;24.89;99908.03;10337462;28;20469;-70
2023/06/01 15:08:51;;;;;;;2.53;1.80;;;;;;;25.39;26.42;99907.56;10337982;28;20448;-71
2023/06/01 15:13:53;;;;;;;3.20;1.90;;;;;;;25.44;27.25;99895.50;10337517;28;20046;-72
2023/06/01 15:18:55;;;;;;;4.88;2.90;;;;;;;25.77;27.17;99896.81;10337764;28;20085;-73
2023/06/01 15:23:56;;;;;;;3.63;2.30;;;;;;;26.37;26.93;99892.59;10336354;28;20050;-72
2023/06/01 15:28:58;;;;;;;2.88;2.55;;;;;;;25.49;28.64;99883.28;10335866;28;20404;-72
2023/06/01 15:34:00;;;;;;;3.15;2.88;;;;;;;25.92;27.89;99880.00;10337338;28;20053;-71
2023/06/01 15:39:03;;;;;;;2.90;2.60;;;;;;;26.27;28.07;99878.34;10336387;28;20042;-71
2023/06/01 15:44:05;;;;;;;9.13;2.80;;;;;;;26.16;28.23;99873.16;10334554;28;20497;-71
2023/06/01 15:49:08;;;;;;;3.67;3.30;;;;;;;26.00;28.90;99865.78;10336983;28;20460;-71
2023/06/01 15:54:09;;;;;;;4.85;3.38;;;;;;;25.57;30.92;99861.88;10336505;28;20440;-71
2023/06/01 15:59:11;;;;;;;3.53;3.28;;;;;;;25.22;31.90;99862.59;10335908;28;20054;-72
2023/06/01 16:04:13;;;;;;;4.15;3.80;;;;;;;25.15;31.84;99861.50;10337059;28;20049;-71
2023/06/01 16:09:17;;;;;;;4.05;2.70;;;;;;;25.25;31.45;99848.84;10350270;28;20057;-70
2023/06/01 16:14:19;;;;;;;3.97;2.72;;;;;;;24.82;32.45;99844.81;10335484;28;20049;-72
2023/06/01 16:19:21;;;;;;;2.78;2.38;;;;;;;24.78;32.87;99839.88;10335817;28;20485;-70
2023/06/01 16:24:23;;;;;;;5.65;3.58;;;;;;;24.45;34.55;99839.38;10335281;28;20481;-71
2023/06/01 16:29:24;;;;;;;3.08;2.40;;;;;;;23.63;34.62;99836.94;10335708;28;20129;-71
2023/06/01 16:34:26;;;;;;;3.67;1.90;;;;;;;23.24;35.56;99846.69;10336478;28;20046;-69
2023/06/01 16:39:28;;;;;;;3.47;1.98;;;;;;;23.15;34.64;99834.91;10340494;28;20092;-72
2023/06/01 16:44:30;;;;;;;4.65;2.13;;;;;;;23.63;34.23;99832.41;10342782;28;20050;-71
2023/06/01 16:49:31;;;;;;;3.50;1.70;;;;;;;23.49;34.38;99831.97;10360143;28;20034;-72
2023/06/01 16:54:34;;;;;;;3.53;2.45;;;;;;;23.20;34.02;99831.84;10342872;28;20097;-70
2023/06/01 16:59:37;;;;;;;4.45;3.15;;;;;;;23.14;33.61;99826.03;10343594;28;20045;-71
2023/06/01 17:04:38;;;;;;;5.47;3.47;;;;;;;22.80;34.80;99822.75;10345626;28;20061;-71
2023/06/01 17:09:40;;;;;;;4.30;2.58;;;;;;;22.58;34.92;99812.16;10344010;28;20070;-72
2023/06/01 17:14:46;;;;;;;4.30;4.00;;;;;;;22.11;36.27;99815.13;10345029;28;20061;-71
2023/06/01 17:19:48;;;;;;;2.50;2.30;;;;;;;22.00;36.35;99817.00;10344743;28;20061;-71
2023/06/01 17:24:50;;;;;;;4.32;2.53;;;;;;;22.08;36.29;99819.91;10327863;28;20121;-70
2023/06/01 17:29:52;;;;;;;3.78;2.50;;;;;;;21.84;36.75;99820.94;10344497;28;20049;-71
2023/06/01 17:34:54;;;;;;;3.20;2.10;;;;;;;21.76;37.45;99822.56;10343229;28;20093;-71
2023/06/01 17:39:56;;;;;;;3.58;2.45;;;;;;;21.45;38.65;99811.66;10342030;28;20042;-71
2023/06/01 17:44:57;;;;;;;4.53;2.58;;;;;;;21.34;38.17;99819.72;10343177;28;20042;-72
2023/06/01 17:49:59;;;;;;;7.90;2.25;;;;;;;21.49;37.85;99814.94;10343031;28;20045;-71
2023/06/01 17:55:01;;;;;;;7.70;2.88;;;;;;;21.23;38.22;99815.16;10342582;28;20046;-70
2023/06/01 18:00:03;;;;;;;2.72;2.42;;;;;;;21.17;38.98;99823.69;10342724;28;20113;-71
2023/06/01 18:05:08;;;;;;;8.52;2.50;;;;;;;20.89;39.12;99820.50;10342078;28;20054;-71
2023/06/01 18:10:10;;;;;;;3.22;2.55;;;;;;;20.99;39.20;99820.63;10341271;28;20046;-71
2023/06/01 18:15:12;;;;;;;4.85;2.20;;;;;;;20.79;39.88;99813.31;10339721;28;20046;-71
2023/06/01 18:20:14;;;;;;;4.78;2.33;;;;;;;20.68;40.71;99815.97;10354367;28;20060;-70
2023/06/01 18:25:16;;;;;;;3.92;2.25;;;;;;;20.66;41.09;99808.91;10339940;28;20054;-71
2023/06/01 18:30:18;;;;;;;3.47;2.28;;;;;;;20.51;41.63;99812.78;10339584;28;20133;-71
2023/06/01 18:35:19;;;;;;;3.65;2.40;;;;;;;20.32;42.12;99818.66;10339587;28;20425;-71
2023/06/01 18:40:22;;;;;;;7.50;2.90;;;;;;;20.08;43.28;99815.97;10342950;28;20065;-70
2023/06/01 18:45:24;;;;;;;5.55;2.20;;;;;;;19.87;43.66;99821.09;10343407;28;20061;-70
2023/06/01 18:50:29;;;;;;;3.20;2.63;;;;;;;19.80;44.11;99825.19;10341206;28;20050;-72
2023/06/01 18:55:31;;;;;;;3.43;2.53;;;;;;;19.69;44.90;99826.91;10339933;28;20074;-71
2023/06/01 19:00:33;;;;;;;5.05;2.42;;;;;;;19.63;45.03;99836.22;10338892;28;20034;-70
2023/06/01 19:05:35;;;;;;;4.03;2.25;;;;;;;19.40;45.82;99833.38;10340355;28;20046;-71
2023/06/01 19:10:58;;;;;;;4.68;2.47;;;;;;;19.34;46.38;99848.94;10336997;28;20053;-71
2023/06/01 19:16:04;;;;;;;3.10;2.65;;;;;;;19.23;46.75;99846.19;10338315;28;20138;-72
2023/06/01 19:21:12;;;;;;;3.10;2.80;;;;;;;19.05;47.45;99846.53;10337448;28;20038;-70
2023/06/01 19:26:15;;;;;;;6.35;3.08;;;;;;;19.00;47.93;99853.13;10337727;28;20121;-70
2023/06/01 19:31:23;;;;;;;3.75;2.70;;;;;;;18.81;48.58;99851.72;10336368;28;20117;-71
2023/06/01 19:36:56;;;;;;;6.72;2.88;;;;;;;18.53;50.07;99863.38;10336409;28;20057;-70
2023/06/01 19:42:01;;;;;;;3.65;2.65;;;;;;;18.54;49.82;99859.75;10174313;29;20450;-69
2023/06/01 19:47:03;;;;;;;4.65;2.78;;;;;;;18.22;51.15;99861.91;10175361;29;20103;-71
2023/06/01 19:52:07;;;;;;;4.53;2.55;;;;;;;18.18;51.51;99868.38;10159222;29;20455;-71
2023/06/01 19:57:09;;;;;;;9.18;3.78;;;;;;;18.07;51.72;99871.75;10174514;29;20135;-70
2023/06/01 20:02:39;;;;;;;3.47;3.13;;;;;;;17.82;52.47;99869.81;10172658;29;20080;-70
2023/06/01 20:07:41;;;;;;;4.85;3.42;;;;;;;17.71;52.90;99868.75;10160069;29;20071;-70
2023/06/01 20:12:43;;;;;;;7.55;3.25;;;;;;;17.68;53.71;99875.16;10180544;29;20044;-71
2023/06/01 20:17:45;;;;;;;5.53;3.63;;;;;;;17.50;54.66;99882.47;10290097;28;20501;-71
2023/06/01 20:22:47;;;;;;;4.82;2.70;;;;;;;17.46;55.14;99883.63;10347791;28;20050;-70
2023/06/01 20:27:49;;;;;;;5.35;3.45;;;;;;;17.23;56.95;99884.19;10348826;28;20073;-70
2023/06/01 20:32:53;;;;;;;5.35;3.17;;;;;;;17.42;56.89;99890.06;10349888;28;20407;-70
2023/06/01 20:37:55;;;;;;;5.72;3.53;;;;;;;17.13;58.58;99892.72;10347253;28;20420;-70
2023/06/01 20:42:57;;;;;;;5.10;3.88;;;;;;;17.13;59.67;99894.50;10347807;28;20061;-69
2023/06/01 20:47:58;;;;;;;5.38;3.22;;;;;;;16.86;61.59;99887.25;10347985;28;20054;-70
2023/06/01 20:53:00;;;;;;;8.50;3.40;;;;;;;16.86;62.54;99899.69;10365473;28;20042;-71
2023/06/01 20:58:02;;;;;;;5.25;3.63;;;;;;;16.63;64.32;99896.56;10349220;28;20042;-71
2023/06/01 21:03:04;;;;;;;5.05;3.05;;;;;;;16.53;64.88;99900.72;10348146;28;20042;-70
2023/06/01 21:08:06;;;;;;;5.75;3.60;;;;;;;16.34;66.05;99900.94;10348456;28;20433;-70
2023/06/01 21:13:08;;;;;;;4.88;3.80;;;;;;;16.25;67.19;99903.28;10348049;28;20496;-70
2023/06/01 21:18:10;;;;;;;4.22;3.35;;;;;;;16.20;67.39;99914.09;10347486;28;20050;-70
2023/06/01 21:23:12;;;;;;;4.70;3.80;;;;;;;16.08;68.32;99914.81;10345194;28;20393;-70
2023/06/01 21:28:14;;;;;;;5.30;3.63;;;;;;;15.81;69.71;99912.78;10342435;28;20554;-71
2023/06/01 21:33:16;;;;;;;4.95;3.80;;;;;;;15.85;69.70;99924.06;10342053;28;20053;-70
2023/06/01 21:38:18;;;;;;;5.47;4.60;;;;;;;15.68;70.85;99924.13;10341897;28;20053;-71
2023/06/01 21:43:20;;;;;;;4.35;3.90;;;;;;;15.58;71.48;99921.97;10341766;28;20504;-70
2023/06/01 21:48:23;;;;;;;4.78;4.10;;;;;;;15.50;72.49;99931.25;10356641;28;20046;-71
2023/06/01 21:53:25;;;;;;;4.50;4.10;;;;;;;15.41;72.74;99929.09;10340742;28;20382;-71
2023/06/01 21:58:29;;;;;;;6.00;4.28;;;;;;;15.08;75.03;99928.13;10338896;28;20148;-71
2023/06/01 22:03:31;;;;;;;4.30;3.90;;;;;;;15.00;74.52;99938.25;10340634;28;20046;-69
2023/06/01 22:08:33;;;;;;;5.80;4.10;;;;;;;15.01;75.08;99944.44;10340569;28;20042;-70
2023/06/01 22:13:35;;;;;;;5.57;4.50;;;;;;;14.85;75.64;99953.13;10341145;28;20046;-70
2023/06/01 22:18:37;;;;;;;6.47;4.90;;;;;;;14.72;75.94;99953.84;10340831;28;20475;-70
2023/06/01 22:23:38;;;;;;;5.40;4.05;;;;;;;14.75;75.66;99951.03;10408912;23;20030;-70
2023/06/01 22:28:40;;;;;;;5.85;4.15;;;;;;;14.69;75.73;99959.25;10419172;28;20045;-70
2023/06/01 22:33:42;;;;;;;6.88;4.70;;;;;;;14.66;75.66;99962.09;10418466;28;20041;-70
2023/06/01 22:38:44;;;;;;;5.70;4.53;;;;;;;14.29;77.59;99969.97;10418530;28;20407;-70
2023/06/01 22:43:46;;;;;;;5.88;4.25;;;;;;;14.44;76.20;99978.13;10418489;28;20042;-71
2023/06/01 22:48:49;;;;;;;4.90;4.20;;;;;;;14.41;76.48;99981.75;10418069;28;20049;-70
2023/06/01 22:53:51;;;;;;;5.85;4.10;;;;;;;14.13;77.76;99984.88;10418106;28;20037;-69
2023/06/01 22:58:53;;;;;;;5.47;4.85;;;;;;;14.23;77.04;99980.00;10417582;28;20038;-69
2023/06/01 23:03:55;;;;;;;9.93;4.53;;;;;;;14.12;77.48;99981.38;10417456;28;20042;-70
2023/06/01 23:08:57;;;;;;;6.35;4.93;;;;;;;14.10;77.03;99979.72;10415911;28;20060;-70
2023/06/01 23:13:59;;;;;;;9.25;4.45;;;;;;;14.05;77.16;99994.94;10416995;28;20446;-70
2023/06/01 23:19:03;;;;;;;6.35;4.63;;;;;;;13.96;77.37;99993.59;10415593;28;20056;-71
2023/06/01 23:24:06;;;;;;;7.65;4.38;;;;;;;13.97;77.59;99994.44;10415470;28;20037;-71